createdAt,value
2018-03-18T08:21:01.123Z,93245.75
2018-03-18T08:23:29.506Z,93253.47
2018-03-18T08:25:57.872Z,93252.29
2018-03-18T08:28:32.323Z,93263.08
2018-03-18T08:31:00.673Z,93261.09
2018-03-18T08:33:30.483Z,93264.72
2018-03-18T08:35:58.858Z,93250.82
2018-03-18T08:38:27.346Z,93259.14
2018-03-18T11:10:43.679Z,93343.84
2018-03-18T11:13:34.641Z,93348.81
2018-03-18T11:16:03.052Z,93327.18
2018-03-18T11:18:31.629Z,93340.19
2018-03-18T11:21:11.964Z,93347.66
2018-03-18T11:23:40.133Z,93335.38
2018-03-18T11:26:08.509Z,93332.13
2018-03-18T11:28:36.880Z,93331.69
2018-03-18T11:31:05.437Z,93343.25
2018-03-18T11:33:33.777Z,93345.61
2018-03-18T11:36:02.128Z,93348.28
2018-03-18T11:38:30.811Z,93348.12
2018-03-18T11:40:59.142Z,93337.60
2018-03-18T11:43:27.543Z,93346.98
2018-03-18T11:45:55.862Z,93345.47
2018-03-18T11:48:24.355Z,93340.09
2018-03-18T11:50:52.704Z,93333.30
2018-03-18T11:53:21.041Z,93331.63
2018-03-18T11:55:49.424Z,93333.15
2018-03-18T11:58:17.953Z,93333.91
2018-03-18T12:00:46.342Z,93329.46
2018-03-18T12:03:14.710Z,93323.05
2018-03-18T12:05:43.051Z,93332.37
2018-03-18T12:08:33.290Z,93340.17
2018-03-18T12:11:01.647Z,93337.41
2018-03-18T12:13:29.983Z,93343.14
2018-03-18T12:15:58.368Z,93345.98
2018-03-18T12:18:31.286Z,93348.05
2018-03-18T12:21:00.429Z,93348.30
2018-03-18T12:23:30.368Z,93344.08
2018-03-18T12:25:58.691Z,93331.84
2018-03-18T12:28:27.121Z,93332.31
2018-03-18T12:30:55.530Z,93334.97
2018-03-18T12:33:23.882Z,93332.78
2018-03-18T12:35:52.220Z,93335.36
2018-03-18T12:38:20.542Z,93342.09
2018-03-18T12:40:52.097Z,93341.86
2018-03-18T12:43:33.321Z,93348.38
2018-03-18T12:46:01.683Z,93350.16
2018-03-18T12:48:30.119Z,93343.68
2018-03-18T12:50:58.463Z,93347.22
2018-03-18T12:53:26.887Z,93353.35
2018-03-18T12:55:55.210Z,93358.84
2018-03-18T12:58:23.542Z,93355.20
2018-03-18T13:00:51.885Z,93357.29
2018-03-18T13:03:20.209Z,93356.51
2018-03-18T13:05:48.606Z,93359.70
2018-03-18T13:08:17.439Z,93361.38
2018-03-18T13:10:45.779Z,93361.09
2018-03-18T13:13:14.099Z,93375.97
2018-03-18T13:15:42.905Z,93388.14
2018-03-18T13:18:11.241Z,93398.72
